Sedov — UELO — position and weather

sailwx.info

Track history (hours):
 
Tides and Currents Weather Stations Pressure Air Temp Water Temp Dewpoint Dewpoint Depression Visibility Wind Speed Wind Dir Waves Ship Positions

Sedov (Russia)

Last reported at 2015-Jul-28 07:33 UTC. Time now 2015-Jul-28 08:18 UTC.
Position N 57°26' E 011°26'.

; draft 6.6 m.

Type: Sailing vessel. MMSI: 273510000.

Date/timePositionNaut miles runAvg speedWind from/ knotsBaromVisibWave heightAir tempDewpointWater temp
2015-Jul-28 07:33N 57°26' E 011°26'7 7.1
2015-Jul-28 06:33N 57°31' E 011°17'6 6.4
2015-Jul-28 05:33N 57°36' E 011°08'7 7.1
2015-Jul-28 04:33N 57°40' E 010°58'7 7.4
2015-Jul-28 03:33N 57°46' E 010°48'7 7.1
2015-Jul-28 02:33N 57°49' E 010°36'69 8.6
2015-Jul-27 18:33N 57°59' E 008°28'  
2015-Jul-23 01:09N 58°00' E 006°19'5 9.1
2015-Jul-23 00:33N 58°04' E 006°12'9 9.0
2015-Jul-22 23:33N 58°10' E 005°60'9 8.9
2015-Jul-22 22:33N 58°17' E 005°48'9 8.8
2015-Jul-22 21:32N 58°23' E 005°36'27 9.1
2015-Jul-22 18:34N 58°44' E 005°03'9 9.3
2015-Jul-22 17:34N 58°53' E 004°56'10 9.7
2015-Jul-22 16:33N 59°01' E 004°47'10 9.9
2015-Jul-22 15:32N 59°11' E 004°41'  
Track history (hours):
 
Tides and Currents Weather Stations Pressure Air Temp Water Temp Dewpoint Dewpoint Depression Visibility Wind Speed Wind Dir Waves Ship Positions

Sedov (Russia)

Last reported at 2015-Jul-28 07:33 UTC. Time now 2015-Jul-28 08:18 UTC.
Position N 57°26' E 011°26'.

; draft 6.6 m.

Type: Sailing vessel. MMSI: 273510000.

Date/timePositionNaut miles runAvg speedWind from/ knotsBaromVisibWave heightAir tempDewpointWater temp
2015-Jul-28 07:33N 57°26' E 011°26'7 7.1
2015-Jul-28 06:33N 57°31' E 011°17'6 6.4
2015-Jul-28 05:33N 57°36' E 011°08'7 7.1
2015-Jul-28 04:33N 57°40' E 010°58'7 7.4
2015-Jul-28 03:33N 57°46' E 010°48'7 7.1
2015-Jul-28 02:33N 57°49' E 010°36'69 8.6
2015-Jul-27 18:33N 57°59' E 008°28'  
2015-Jul-23 01:09N 58°00' E 006°19'5 9.1
2015-Jul-23 00:33N 58°04' E 006°12'9 9.0
2015-Jul-22 23:33N 58°10' E 005°60'9 8.9
2015-Jul-22 22:33N 58°17' E 005°48'9 8.8
2015-Jul-22 21:32N 58°23' E 005°36'27 9.1
2015-Jul-22 18:34N 58°44' E 005°03'9 9.3
2015-Jul-22 17:34N 58°53' E 004°56'10 9.7
2015-Jul-22 16:33N 59°01' E 004°47'10 9.9
2015-Jul-22 15:32N 59°11' E 004°41'  

Dump ship's entire track history